createdAt,value
2023-10-18T00:00:30.616Z,4.33
2023-10-18T00:04:35.667Z,4.30
2023-10-18T00:08:39.141Z,5.40
2023-10-18T00:12:45.289Z,5.37
2023-10-18T00:16:49.099Z,6.27
2023-10-18T00:21:01.997Z,5.37
2023-10-18T00:25:10.001Z,5.50
2023-10-18T00:29:13.677Z,4.03
2023-10-18T00:33:19.264Z,4.90
2023-10-18T00:37:25.153Z,3.47
2023-10-18T00:41:34.221Z,5.30
2023-10-18T00:45:45.553Z,5.70
2023-10-18T00:49:53.701Z,4.57
2023-10-18T00:53:58.897Z,5.30
2023-10-18T00:58:06.634Z,5.80
2023-10-18T01:02:15.832Z,6.33
2023-10-18T01:06:23.184Z,6.23
2023-10-18T01:10:32.121Z,5.93
2023-10-18T01:14:35.580Z,5.90
2023-10-18T01:18:41.087Z,6.53
2023-10-18T01:22:45.381Z,5.83
2023-10-18T01:26:50.399Z,5.63
2023-10-18T01:30:54.212Z,6.13
2023-10-18T01:34:57.989Z,5.87
2023-10-18T01:39:01.925Z,6.17
2023-10-18T01:43:07.052Z,6.23
2023-10-18T01:47:10.776Z,5.83
2023-10-18T01:51:14.428Z,5.23
2023-10-18T01:55:19.269Z,6.60
2023-10-18T01:59:29.051Z,6.93
2023-10-18T02:03:33.464Z,6.37
2023-10-18T02:07:38.208Z,6.23
2023-10-18T02:11:42.053Z,7.17
2023-10-18T02:15:49.719Z,6.63
2023-10-18T02:19:53.573Z,7.27
2023-10-18T02:23:57.340Z,6.63
2023-10-18T02:28:01.256Z,6.80
2023-10-18T02:32:23.141Z,7.67
2023-10-18T02:36:34.102Z,6.93
2023-10-18T02:40:39.600Z,8.13
2023-10-18T02:44:46.445Z,7.73
2023-10-18T02:48:53.358Z,7.80
2023-10-18T02:52:57.132Z,7.90
2023-10-18T02:57:00.949Z,7.50
2023-10-18T03:01:09.198Z,8.47
2023-10-18T03:05:14.182Z,9.07
2023-10-18T03:09:29.561Z,9.03
2023-10-18T03:13:33.352Z,9.03
2023-10-18T03:17:37.962Z,9.53
2023-10-18T03:21:48.473Z,8.57
2023-10-18T03:26:01.205Z,9.63
2023-10-18T03:30:19.423Z,9.17
2023-10-18T03:34:24.000Z,8.40
2023-10-18T03:38:32.105Z,10.50
2023-10-18T03:42:35.627Z,9.40
2023-10-18T03:46:48.578Z,9.30
2023-10-18T03:50:56.113Z,8.07
2023-10-18T03:55:08.142Z,10.23
2023-10-18T03:59:22.318Z,10.07
2023-10-18T04:03:30.403Z,9.00
2023-10-18T04:07:34.576Z,8.80
2023-10-18T04:11:39.500Z,9.60
2023-10-18T04:15:47.258Z,9.10
2023-10-18T04:19:51.306Z,9.70
2023-10-18T04:23:57.856Z,9.77
2023-10-18T04:28:03.415Z,10.60
2023-10-18T04:32:17.222Z,8.70
2023-10-18T04:36:22.147Z,10.07
2023-10-18T04:40:27.559Z,10.70
2023-10-18T04:44:35.886Z,10.43
2023-10-18T04:49:01.949Z,9.97
2023-10-18T04:53:13.694Z,9.43
2023-10-18T04:57:17.110Z,10.20
2023-10-18T05:01:24.134Z,11.37
2023-10-18T05:05:28.517Z,12.20
2023-10-18T05:09:36.202Z,12.87
2023-10-18T05:13:43.450Z,13.93
2023-10-18T05:17:49.459Z,12.37
2023-10-18T05:21:53.220Z,12.83
2023-10-18T05:26:10.451Z,13.73
2023-10-18T05:30:17.381Z,13.87
2023-10-18T05:34:23.559Z,14.30
2023-10-18T05:38:50.050Z,13.40
2023-10-18T05:42:53.662Z,16.57
2023-10-18T05:46:58.409Z,17.00
2023-10-18T05:51:36.672Z,18.17
2023-10-18T05:55:42.049Z,23.97
2023-10-18T05:59:47.958Z,26.63
2023-10-18T06:03:52.828Z,25.90
2023-10-18T06:07:58.218Z,28.73
2023-10-18T06:12:02.672Z,28.27
2023-10-18T06:16:20.777Z,33.83
2023-10-18T06:20:29.083Z,34.23
2023-10-18T06:24:34.490Z,38.07
2023-10-18T06:28:39.176Z,34.77
2023-10-18T06:32:42.698Z,34.60
2023-10-18T06:36:48.916Z,36.03
2023-10-18T06:41:06.784Z,29.07
2023-10-18T06:45:17.376Z,38.23
2023-10-18T06:49:21.177Z,31.00
2023-10-18T06:53:27.158Z,37.67
2023-10-18T06:57:37.525Z,35.13
2023-10-18T07:01:45.647Z,28.27
2023-10-18T07:05:53.386Z,37.57
2023-10-18T07:09:59.994Z,33.20
2023-10-18T07:14:06.622Z,33.77
2023-10-18T07:18:15.467Z,43.63
2023-10-18T07:22:22.992Z,38.00
2023-10-18T07:26:26.737Z,39.57
2023-10-18T07:30:43.620Z,34.83
2023-10-18T07:34:47.196Z,45.70
2023-10-18T07:38:56.709Z,31.30
2023-10-18T07:43:00.170Z,38.70
2023-10-18T07:47:05.641Z,40.63
2023-10-18T07:51:27.225Z,38.80
2023-10-18T07:55:38.455Z,35.80
2023-10-18T07:59:47.381Z,31.30
2023-10-18T08:03:54.332Z,42.73
2023-10-18T08:08:04.717Z,46.50
2023-10-18T08:12:09.193Z,36.60
2023-10-18T08:16:21.042Z,34.80
2023-10-18T08:20:39.932Z,37.30
2023-10-18T08:24:51.246Z,35.70
2023-10-18T08:28:58.774Z,30.10
2023-10-18T08:33:05.090Z,28.67
2023-10-18T08:37:12.781Z,30.60
2023-10-18T08:41:17.479Z,32.63
2023-10-18T08:45:24.856Z,28.97
2023-10-18T08:49:34.179Z,29.97
2023-10-18T08:53:42.633Z,29.17
2023-10-18T08:57:47.343Z,28.43
2023-10-18T09:02:08.539Z,28.00
2023-10-18T09:06:23.595Z,25.53
2023-10-18T09:10:44.632Z,25.47
2023-10-18T09:14:52.133Z,24.07
2023-10-18T09:18:56.237Z,22.57
2023-10-18T09:23:04.850Z,19.40
2023-10-18T09:27:09.923Z,20.90
2023-10-18T09:31:22.052Z,20.73
2023-10-18T09:35:28.507Z,15.60
2023-10-18T09:39:39.899Z,16.97
2023-10-18T09:43:45.810Z,13.47
2023-10-18T09:47:50.565Z,15.70
2023-10-18T09:51:56.583Z,15.60
2023-10-18T09:56:02.058Z,13.73
2023-10-18T10:00:13.446Z,13.97
2023-10-18T10:04:18.874Z,12.23
2023-10-18T10:08:24.554Z,12.70
2023-10-18T10:12:28.832Z,13.80
2023-10-18T10:16:35.174Z,11.90
2023-10-18T10:20:41.940Z,12.43
2023-10-18T10:24:53.000Z,13.13
2023-10-18T10:29:32.615Z,13.43
2023-10-18T10:34:07.923Z,12.07
2023-10-18T10:38:20.400Z,12.60
2023-10-18T10:42:43.238Z,11.03
2023-10-18T10:46:47.347Z,12.77
2023-10-18T10:50:53.651Z,13.27
2023-10-18T10:55:05.586Z,12.57
2023-10-18T10:59:17.435Z,12.07
2023-10-18T11:03:31.238Z,13.27
2023-10-18T11:07:41.725Z,10.50
2023-10-18T11:11:47.698Z,11.13
2023-10-18T11:15:52.998Z,12.97
2023-10-18T11:19:56.888Z,12.47
2023-10-18T11:24:03.811Z,12.40
2023-10-18T11:28:30.140Z,12.30
2023-10-18T11:32:34.047Z,10.63
2023-10-18T11:36:40.539Z,11.60
2023-10-18T11:40:45.664Z,13.00
2023-10-18T11:44:55.862Z,11.33
2023-10-18T11:48:59.405Z,12.37
2023-10-18T11:53:10.380Z,12.60
2023-10-18T11:57:27.966Z,12.30
2023-10-18T12:01:36.378Z,11.40
2023-10-18T12:05:43.551Z,11.93
2023-10-18T12:09:48.276Z,12.40
2023-10-18T12:13:51.716Z,11.77
2023-10-18T12:17:57.324Z,11.50
2023-10-18T12:22:02.344Z,9.63
2023-10-18T12:26:08.407Z,11.00
2023-10-18T12:30:31.916Z,11.90
2023-10-18T12:34:37.795Z,11.17
2023-10-18T12:38:44.627Z,10.47
2023-10-18T12:42:48.196Z,10.30
2023-10-18T12:46:54.977Z,10.03
2023-10-18T12:51:09.162Z,10.83
2023-10-18T12:55:26.896Z,9.93
2023-10-18T12:59:39.593Z,10.13
2023-10-18T13:03:45.805Z,10.47
2023-10-18T13:07:53.919Z,10.30
2023-10-18T13:12:09.286Z,10.43
2023-10-18T13:16:16.591Z,8.53
2023-10-18T13:20:26.334Z,9.73
2023-10-18T13:24:32.647Z,9.70
2023-10-18T13:28:37.204Z,9.90
2023-10-18T13:32:41.877Z,10.30
2023-10-18T13:36:46.245Z,9.57
2023-10-18T13:40:51.105Z,10.43
2023-10-18T13:44:54.759Z,8.47
2023-10-18T13:48:58.803Z,9.53
2023-10-18T13:53:02.392Z,8.50
2023-10-18T13:57:07.543Z,9.33
2023-10-18T14:01:22.152Z,8.77
2023-10-18T14:05:27.671Z,8.60
2023-10-18T14:09:35.472Z,9.73
2023-10-18T14:13:40.907Z,8.40
2023-10-18T14:17:45.303Z,9.17
2023-10-18T14:21:50.549Z,8.50
2023-10-18T14:25:54.467Z,8.30
2023-10-18T14:30:02.235Z,8.83
2023-10-18T14:34:06.287Z,7.63
2023-10-18T14:38:14.047Z,8.47
2023-10-18T14:42:18.211Z,7.83
2023-10-18T14:46:24.339Z,8.23
2023-10-18T14:50:28.740Z,9.17
2023-10-18T14:54:32.467Z,8.33
2023-10-18T14:58:36.205Z,9.40
2023-10-18T15:02:41.662Z,8.90
2023-10-18T15:06:45.150Z,9.00
2023-10-18T15:10:50.581Z,9.30
2023-10-18T15:14:54.858Z,9.03
2023-10-18T15:18:59.875Z,9.10
2023-10-18T15:23:03.772Z,10.80
2023-10-18T15:27:08.505Z,10.63
2023-10-18T15:31:13.788Z,9.37
2023-10-18T15:35:18.948Z,9.77
2023-10-18T15:39:22.634Z,10.63
2023-10-18T15:43:28.315Z,10.70
2023-10-18T15:47:32.060Z,10.23
2023-10-18T15:51:37.984Z,10.77
2023-10-18T15:55:41.555Z,10.60
2023-10-18T15:59:45.018Z,11.13
2023-10-18T16:03:50.308Z,10.60
2023-10-18T16:07:57.092Z,10.47
2023-10-18T16:12:01.095Z,11.13
2023-10-18T16:16:06.606Z,10.40
2023-10-18T16:20:11.046Z,11.67
2023-10-18T16:24:16.291Z,11.70
2023-10-18T16:28:20.200Z,10.97
2023-10-18T16:32:24.463Z,11.73
2023-10-18T16:36:28.176Z,10.30
2023-10-18T16:40:34.476Z,11.07
2023-10-18T16:44:37.912Z,12.20
2023-10-18T16:48:44.559Z,11.80
2023-10-18T16:52:47.967Z,12.73
2023-10-18T16:56:52.980Z,11.80
2023-10-18T17:01:00.057Z,12.50
2023-10-18T17:05:05.735Z,11.80
2023-10-18T17:09:18.234Z,12.83
2023-10-18T17:13:24.358Z,12.60
2023-10-18T17:17:27.864Z,11.83
2023-10-18T17:21:32.640Z,12.00
2023-10-18T17:25:37.497Z,12.27
2023-10-18T17:29:42.544Z,12.07
2023-10-18T17:33:45.998Z,11.13
2023-10-18T17:37:50.348Z,13.00
2023-10-18T17:41:54.637Z,11.30
2023-10-18T17:45:59.954Z,11.10
2023-10-18T17:50:06.197Z,12.47
2023-10-18T17:54:09.794Z,11.60
2023-10-18T17:58:16.130Z,11.33
2023-10-18T18:02:21.344Z,11.53
2023-10-18T18:06:25.628Z,12.10
2023-10-18T18:10:30.219Z,11.50
2023-10-18T18:14:37.141Z,12.47
2023-10-18T18:18:44.937Z,13.20
2023-10-18T18:22:49.457Z,13.07
2023-10-18T18:26:53.212Z,14.23
2023-10-18T18:30:57.377Z,14.60
2023-10-18T18:35:02.355Z,15.97
2023-10-18T18:39:08.032Z,14.83
2023-10-18T18:43:11.766Z,16.53
2023-10-18T18:47:15.939Z,17.50
2023-10-18T18:51:21.081Z,18.37
2023-10-18T18:55:26.921Z,18.63
2023-10-18T18:59:30.706Z,18.23
2023-10-18T19:03:36.181Z,19.23
2023-10-18T19:07:44.296Z,20.10
2023-10-18T19:11:48.141Z,21.37
2023-10-18T19:15:51.952Z,22.83
2023-10-18T19:19:55.655Z,18.83
2023-10-18T19:24:01.342Z,21.47
2023-10-18T19:28:05.403Z,21.47
2023-10-18T19:32:09.988Z,22.30
2023-10-18T19:36:14.405Z,22.37
2023-10-18T19:40:19.905Z,21.43
2023-10-18T19:44:23.472Z,23.90
2023-10-18T19:48:28.823Z,22.93
2023-10-18T19:52:32.691Z,23.33
2023-10-18T19:56:37.797Z,22.50
2023-10-18T20:00:41.350Z,21.47
2023-10-18T20:04:44.989Z,24.20
2023-10-18T20:08:49.018Z,22.43
2023-10-18T20:12:54.211Z,23.70
2023-10-18T20:16:57.808Z,21.30
2023-10-18T20:21:02.352Z,21.93
2023-10-18T20:25:07.725Z,22.87
2023-10-18T20:29:14.104Z,23.00
2023-10-18T20:33:18.088Z,22.77
2023-10-18T20:37:22.496Z,22.60
2023-10-18T20:41:26.242Z,21.73
2023-10-18T20:45:36.673Z,21.20
2023-10-18T20:49:41.665Z,21.47
2023-10-18T20:53:47.047Z,18.83
2023-10-18T20:57:50.751Z,21.60
2023-10-18T21:02:01.900Z,21.93
2023-10-18T21:06:13.648Z,21.07
2023-10-18T21:10:19.645Z,21.40
2023-10-18T21:14:24.839Z,22.17
2023-10-18T21:18:29.943Z,22.67
2023-10-18T21:22:33.597Z,20.30
2023-10-18T21:26:38.629Z,22.57
2023-10-18T21:30:42.328Z,20.50
2023-10-18T21:34:47.529Z,19.83
2023-10-18T21:38:51.663Z,19.83
2023-10-18T21:42:55.425Z,17.13
2023-10-18T21:46:59.173Z,18.43
2023-10-18T21:51:06.670Z,18.93
2023-10-18T21:55:11.158Z,17.50
2023-10-18T21:59:16.048Z,18.60
2023-10-18T22:03:21.900Z,18.43
2023-10-18T22:07:26.947Z,17.23
2023-10-18T22:11:31.791Z,18.13
2023-10-18T22:15:37.082Z,17.43
2023-10-18T22:19:40.666Z,17.70
2023-10-18T22:23:47.515Z,16.97
2023-10-18T22:27:57.370Z,17.73
2023-10-18T22:32:16.194Z,16.20
2023-10-18T22:36:22.610Z,14.93
2023-10-18T22:40:28.338Z,15.17
2023-10-18T22:44:35.004Z,15.63
2023-10-18T22:48:39.444Z,15.80
2023-10-18T22:52:46.085Z,14.90
2023-10-18T22:56:57.935Z,13.97
2023-10-18T23:01:02.505Z,13.77
2023-10-18T23:05:13.249Z,12.93
2023-10-18T23:09:25.197Z,12.00
2023-10-18T23:13:41.528Z,11.93
2023-10-18T23:17:53.397Z,12.40
2023-10-18T23:21:59.057Z,11.70
2023-10-18T23:26:21.615Z,13.10
2023-10-18T23:30:33.908Z,12.07
2023-10-18T23:34:38.727Z,12.53
2023-10-18T23:38:44.788Z,12.00
2023-10-18T23:42:55.574Z,11.37
2023-10-18T23:47:04.831Z,12.30
2023-10-18T23:51:22.573Z,13.73
2023-10-18T23:55:38.085Z,13.13
2023-10-18T23:59:42.514Z,13.67
